Startpagina
METAR-TAF:

METAR-TAF

Vliegvelden :

Bückeburg, Duitsland

breedte: 52-17N, lengte: 009-05E, hoogte: 70 m

Actueel weer

Dit bericht is 40 minuten geleden gemaakt, om 14:31 UTC
Wind 11 kt uit het westen met uitschieters tot 22 kt
Temperatuur 5°C
Vochtigheid 81%
Druk 997 hPa
Zicht: 8000 m
Gebroken wolken op 1600 ft, Cumulonimbus.
lichte regenbuien

METAR: ETHB 261431Z 27011G22KT 8000 -SHRA BKN016CB 05/02 Q0997 WHT BLU TEMPO YLO

Tijdstip: 16:11 (15:11 UTC)

Verwachting

Dit bericht is 1 uur en het 9 minuten geleden gemaakt, om 14:02 UTC
Verwachting geldig van 26 om 15 UTC tot 26 om 24 UTC
Wind 8 kt uit het westen
Zicht 10 km of meer
Verspreide wolken op 2000 ft
Gebroken wolken op 4000 ft
Tijdelijke
van 26 om 15 UTC tot 26 om 21 UTC
Wind 12 kt uit het westnoordwesten met uitschieters tot 25 kt
Zicht: 3000 m
Verspreide wolken op 800 ft
Gebroken wolken op 1200 ft, Cumulonimbus.
regenbuien, sneeuw

TAF: ETHB 261402Z 2615/2624 27008KT 9999 NSW SCT020 BKN040 TEMPO 2615/2621 29012G25KT 3000 SHRASN SCT008 BKN012CB

Waarnemingen en weersverwachtingen van meer dan 4000 vliegvelden (METAR en TAF).

De beschikbare stations zijn de gele en rode punten op de kaart.

Ga met uw muis naar het station om de naam te zien.

Klik dan om waarnemingen en weersverwachtingen te zien.

kaart wijzigen: klik op de groene knoppen met een zwart kruis om in te zoomen, op de groene knop met een streepje om uit te zoomen of op de groene pijlen voor aangrenzende kaarten.


METAR-TAF: